sensor_id;sensor_type;location;lat;lon;timestamp;pressure;altitude;pressure_sealevel;temperature;humidity
44385;BME280;30101;32.778;34.994;2022-12-01T00:04:03;97982.19;;;15.87;76.59
44385;BME280;30101;32.778;34.994;2022-12-01T00:09:08;97985.78;;;15.93;76.40
44385;BME280;30101;32.778;34.994;2022-12-01T00:14:16;97996.06;;;15.96;76.39
44385;BME280;30101;32.778;34.994;2022-12-01T00:19:23;97989.66;;;15.97;75.98
44385;BME280;30101;32.778;34.994;2022-12-01T00:24:26;97981.78;;;15.96;75.95
44385;BME280;30101;32.778;34.994;2022-12-01T00:29:30;97985.78;;;15.93;76.33
44385;BME280;30101;32.778;34.994;2022-12-01T00:34:33;97985.69;;;15.88;76.15
44385;BME280;30101;32.778;34.994;2022-12-01T00:39:38;97982.88;;;15.83;76.02
44385;BME280;30101;32.778;34.994;2022-12-01T00:44:41;97984.19;;;15.80;75.93
44385;BME280;30101;32.778;34.994;2022-12-01T00:49:45;97977.63;;;15.76;76.02
44385;BME280;30101;32.778;34.994;2022-12-01T00:54:49;97992.66;;;15.72;76.00
44385;BME280;30101;32.778;34.994;2022-12-01T00:59:53;97988.28;;;15.71;75.69
44385;BME280;30101;32.778;34.994;2022-12-01T01:04:56;97991.22;;;15.70;75.68
44385;BME280;30101;32.778;34.994;2022-12-01T01:09:59;97982.34;;;15.69;75.71
44385;BME280;30101;32.778;34.994;2022-12-01T01:15:06;97986.34;;;15.67;75.42
44385;BME280;30101;32.778;34.994;2022-12-01T01:20:09;97993.59;;;15.66;75.51
44385;BME280;30101;32.778;34.994;2022-12-01T01:25:13;97995.22;;;15.67;75.05
44385;BME280;30101;32.778;34.994;2022-12-01T01:30:18;97984.47;;;15.67;75.12
44385;BME280;30101;32.778;34.994;2022-12-01T01:35:22;97993.34;;;15.68;74.75
44385;BME280;30101;32.778;34.994;2022-12-01T01:40:25;97986.56;;;15.65;74.91
44385;BME280;30101;32.778;34.994;2022-12-01T01:45:29;97997.66;;;15.69;74.90
44385;BME280;30101;32.778;34.994;2022-12-01T01:50:33;97992.78;;;15.66;74.66
44385;BME280;30101;32.778;34.994;2022-12-01T01:55:37;97991.97;;;15.65;75.18
44385;BME280;30101;32.778;34.994;2022-12-01T02:00:42;97996.50;;;15.64;74.93
44385;BME280;30101;32.778;34.994;2022-12-01T02:05:46;98001.53;;;15.61;75.09
44385;BME280;30101;32.778;34.994;2022-12-01T02:11:16;97999.06;;;15.59;74.93
44385;BME280;30101;32.778;34.994;2022-12-01T02:32:54;97999.53;;;15.56;74.94
44385;BME280;30101;32.778;34.994;2022-12-01T02:38:06;98001.41;;;15.56;74.98
44385;BME280;30101;32.778;34.994;2022-12-01T02:48:33;97994.72;;;15.58;74.87
44385;BME280;30101;32.778;34.994;2022-12-01T02:53:36;98002.22;;;15.56;74.71
44385;BME280;30101;32.778;34.994;2022-12-01T02:58:43;97996.38;;;15.59;74.49
44385;BME280;30101;32.778;34.994;2022-12-01T03:03:58;98007.97;;;15.60;74.75
44385;BME280;30101;32.778;34.994;2022-12-01T03:14:25;98004.44;;;15.59;74.45
44385;BME280;30101;32.778;34.994;2022-12-01T03:19:40;98009.59;;;15.61;74.59
44385;BME280;30101;32.778;34.994;2022-12-01T03:24:47;98015.22;;;15.59;74.41
44385;BME280;30101;32.778;34.994;2022-12-01T03:29:55;98022.22;;;15.60;74.75
44385;BME280;30101;32.778;34.994;2022-12-01T03:35:07;98027.63;;;15.60;74.46
44385;BME280;30101;32.778;34.994;2022-12-01T03:40:16;98041.88;;;15.61;74.61
44385;BME280;30101;32.778;34.994;2022-12-01T03:45:30;98036.75;;;15.59;74.41
44385;BME280;30101;32.778;34.994;2022-12-01T03:56:01;98038.84;;;15.57;74.45
44385;BME280;30101;32.778;34.994;2022-12-01T04:01:07;98034.75;;;15.55;74.33
44385;BME280;30101;32.778;34.994;2022-12-01T04:06:11;98042.59;;;15.56;73.82
44385;BME280;30101;32.778;34.994;2022-12-01T04:11:15;98042.72;;;15.61;73.59
44385;BME280;30101;32.778;34.994;2022-12-01T04:16:19;98050.31;;;15.64;73.07
44385;BME280;30101;32.778;34.994;2022-12-01T04:21:22;98052.06;;;15.71;72.84
44385;BME280;30101;32.778;34.994;2022-12-01T04:26:31;98053.38;;;15.68;72.47
44385;BME280;30101;32.778;34.994;2022-12-01T04:31:35;98065.78;;;15.69;72.71
44385;BME280;30101;32.778;34.994;2022-12-01T04:36:39;98070.09;;;15.70;72.31
44385;BME280;30101;32.778;34.994;2022-12-01T04:41:44;98064.72;;;15.70;72.21
44385;BME280;30101;32.778;34.994;2022-12-01T04:46:47;98060.50;;;15.74;71.59
44385;BME280;30101;32.778;34.994;2022-12-01T04:51:50;98070.47;;;15.74;71.54
44385;BME280;30101;32.778;34.994;2022-12-01T04:56:54;98073.63;;;15.71;71.39
44385;BME280;30101;32.778;34.994;2022-12-01T05:01:58;98073.63;;;15.71;71.71
44385;BME280;30101;32.778;34.994;2022-12-01T05:07:02;98078.78;;;15.72;71.83
44385;BME280;30101;32.778;34.994;2022-12-01T05:12:08;98072.09;;;15.75;72.23
44385;BME280;30101;32.778;34.994;2022-12-01T05:17:11;98088.38;;;15.80;72.46
44385;BME280;30101;32.778;34.994;2022-12-01T05:22:15;98091.06;;;15.80;72.61
44385;BME280;30101;32.778;34.994;2022-12-01T05:27:18;98088.38;;;15.80;72.89
44385;BME280;30101;32.778;34.994;2022-12-01T05:32:21;98090.00;;;15.81;73.20
44385;BME280;30101;32.778;34.994;2022-12-01T05:37:25;98102.16;;;15.83;73.50
44385;BME280;30101;32.778;34.994;2022-12-01T05:42:28;98104.16;;;15.88;73.29
44385;BME280;30101;32.778;34.994;2022-12-01T05:47:32;98114.81;;;15.95;73.75
44385;BME280;30101;32.778;34.994;2022-12-01T05:52:35;98115.97;;;16.10;73.11
44385;BME280;30101;32.778;34.994;2022-12-01T05:57:39;98118.16;;;16.65;72.35
44385;BME280;30101;32.778;34.994;2022-12-01T06:02:42;98115.75;;;17.09;71.78
44385;BME280;30101;32.778;34.994;2022-12-01T06:07:47;98122.22;;;16.91;72.21
44385;BME280;30101;32.778;34.994;2022-12-01T06:12:51;98119.13;;;16.71;72.93
44385;BME280;30101;32.778;34.994;2022-12-01T06:17:57;98125.94;;;16.62;72.92
44385;BME280;30101;32.778;34.994;2022-12-01T06:23:01;98127.22;;;16.59;73.26
44385;BME280;30101;32.778;34.994;2022-12-01T06:28:05;98123.69;;;16.59;73.23
44385;BME280;30101;32.778;34.994;2022-12-01T06:33:08;98121.75;;;16.54;73.13
44385;BME280;30101;32.778;34.994;2022-12-01T06:38:12;98129.56;;;16.56;73.62
44385;BME280;30101;32.778;34.994;2022-12-01T06:43:15;98124.63;;;16.64;73.61
44385;BME280;30101;32.778;34.994;2022-12-01T06:48:20;98131.41;;;16.79;73.16
44385;BME280;30101;32.778;34.994;2022-12-01T06:53:23;98128.66;;;16.90;72.95
44385;BME280;30101;32.778;34.994;2022-12-01T06:58:27;98130.72;;;17.00;72.87
44385;BME280;30101;32.778;34.994;2022-12-01T07:03:30;98126.50;;;17.04;72.42
44385;BME280;30101;32.778;34.994;2022-12-01T07:08:34;98128.22;;;17.10;72.55
44385;BME280;30101;32.778;34.994;2022-12-01T07:13:39;98124.06;;;17.19;72.42
44385;BME280;30101;32.778;34.994;2022-12-01T07:18:43;98125.97;;;17.36;72.15
44385;BME280;30101;32.778;34.994;2022-12-01T07:23:46;98129.13;;;17.33;71.99
44385;BME280;30101;32.778;34.994;2022-12-01T07:28:51;98125.72;;;17.37;71.90
44385;BME280;30101;32.778;34.994;2022-12-01T07:33:55;98132.00;;;17.43;71.80
44385;BME280;30101;32.778;34.994;2022-12-01T07:39:02;98123.09;;;17.42;71.76
44385;BME280;30101;32.778;34.994;2022-12-01T07:44:09;98124.47;;;17.45;71.68
44385;BME280;30101;32.778;34.994;2022-12-01T07:49:12;98127.28;;;17.50;71.58
44385;BME280;30101;32.778;34.994;2022-12-01T07:54:16;98124.41;;;17.57;71.36
44385;BME280;30101;32.778;34.994;2022-12-01T07:59:19;98120.81;;;17.68;71.05
44385;BME280;30101;32.778;34.994;2022-12-01T08:04:23;98122.28;;;17.75;70.61
44385;BME280;30101;32.778;34.994;2022-12-01T08:09:26;98112.13;;;17.83;70.69
44385;BME280;30101;32.778;34.994;2022-12-01T08:14:30;98111.97;;;17.89;70.30
44385;BME280;30101;32.778;34.994;2022-12-01T08:19:33;98100.66;;;17.92;70.24
44385;BME280;30101;32.778;34.994;2022-12-01T08:24:37;98090.97;;;17.96;70.17
44385;BME280;30101;32.778;34.994;2022-12-01T08:29:43;98079.19;;;18.02;70.13
44385;BME280;30101;32.778;34.994;2022-12-01T08:34:46;98083.09;;;18.12;69.37
44385;BME280;30101;32.778;34.994;2022-12-01T08:39:56;98080.31;;;18.06;69.48
44385;BME280;30101;32.778;34.994;2022-12-01T08:44:59;98076.28;;;18.09;69.62
44385;BME280;30101;32.778;34.994;2022-12-01T08:50:11;98084.53;;;18.19;69.37
44385;BME280;30101;32.778;34.994;2022-12-01T08:55:24;98069.50;;;18.28;68.82
44385;BME280;30101;32.778;34.994;2022-12-01T09:00:41;98067.00;;;18.44;68.23
44385;BME280;30101;32.778;34.994;2022-12-01T09:05:44;98062.47;;;18.49;68.19
44385;BME280;30101;32.778;34.994;2022-12-01T09:10:51;98050.94;;;18.59;67.76
44385;BME280;30101;32.778;34.994;2022-12-01T09:16:05;98047.56;;;18.69;67.47
44385;BME280;30101;32.778;34.994;2022-12-01T09:26:20;98039.84;;;18.82;66.71
44385;BME280;30101;32.778;34.994;2022-12-01T09:31:24;98032.59;;;18.88;66.29
44385;BME280;30101;32.778;34.994;2022-12-01T09:36:29;98026.44;;;18.98;66.07
44385;BME280;30101;32.778;34.994;2022-12-01T09:46:53;98017.06;;;19.10;65.43
44385;BME280;30101;32.778;34.994;2022-12-01T09:51:58;98020.63;;;19.11;65.32
44385;BME280;30101;32.778;34.994;2022-12-01T09:57:02;98004.72;;;19.20;64.85
44385;BME280;30101;32.778;34.994;2022-12-01T10:02:22;97996.91;;;19.28;64.71
44385;BME280;30101;32.778;34.994;2022-12-01T10:08:02;97993.97;;;19.35;64.64
44385;BME280;30101;32.778;34.994;2022-12-01T10:13:21;97993.25;;;19.45;64.11
44385;BME280;30101;32.778;34.994;2022-12-01T10:24:06;97991.66;;;19.49;63.23
44385;BME280;30101;32.778;34.994;2022-12-01T10:34:36;97995.69;;;19.46;62.64
44385;BME280;30101;32.778;34.994;2022-12-01T10:39:42;97991.38;;;19.50;61.93
44385;BME280;30101;32.778;34.994;2022-12-01T10:44:46;97988.94;;;19.54;62.05
44385;BME280;30101;32.778;34.994;2022-12-01T10:49:50;97982.78;;;19.58;61.63
44385;BME280;30101;32.778;34.994;2022-12-01T10:54:56;97976.28;;;19.59;61.81
44385;BME280;30101;32.778;34.994;2022-12-01T11:00:05;97973.56;;;19.59;61.36
44385;BME280;30101;32.778;34.994;2022-12-01T11:05:21;97976.63;;;19.68;61.81
44385;BME280;30101;32.778;34.994;2022-12-01T11:10:28;97976.09;;;19.71;61.35
44385;BME280;30101;32.778;34.994;2022-12-01T11:15:37;97980.69;;;19.71;61.57
44385;BME280;30101;32.778;34.994;2022-12-01T11:20:41;97978.25;;;19.69;61.74
44385;BME280;30101;32.778;34.994;2022-12-01T11:31:00;97971.44;;;19.61;61.78
44385;BME280;30101;32.778;34.994;2022-12-01T11:36:05;97976.03;;;19.61;61.68
44385;BME280;30101;32.778;34.994;2022-12-01T11:41:34;97983.09;;;19.62;61.85
44385;BME280;30101;32.778;34.994;2022-12-01T11:46:40;97983.59;;;19.59;61.95
44385;BME280;30101;32.778;34.994;2022-12-01T11:52:15;97981.72;;;19.59;62.01
44385;BME280;30101;32.778;34.994;2022-12-01T11:57:19;97978.72;;;19.61;61.51
44385;BME280;30101;32.778;34.994;2022-12-01T12:30:21;97979.00;;;19.59;61.83
44385;BME280;30101;32.778;34.994;2022-12-01T12:46:35;97972.97;;;19.52;61.75
44385;BME280;30101;32.778;34.994;2022-12-01T12:52:22;97968.63;;;19.51;61.83
44385;BME280;30101;32.778;34.994;2022-12-01T12:57:39;97970.53;;;19.51;62.32
44385;BME280;30101;32.778;34.994;2022-12-01T13:03:03;97968.63;;;19.51;62.58
44385;BME280;30101;32.778;34.994;2022-12-01T13:08:20;97962.69;;;19.49;62.56
44385;BME280;30101;32.778;34.994;2022-12-01T13:19:10;97954.78;;;19.43;62.85
44385;BME280;30101;32.778;34.994;2022-12-01T13:24:19;97965.84;;;19.41;62.89
44385;BME280;30101;32.778;34.994;2022-12-01T13:29:33;97967.47;;;19.37;62.92
44385;BME280;30101;32.778;34.994;2022-12-01T13:34:46;97959.59;;;19.30;63.32
44385;BME280;30101;32.778;34.994;2022-12-01T13:39:53;97960.88;;;19.23;63.38
44385;BME280;30101;32.778;34.994;2022-12-01T13:45:07;97963.81;;;19.16;63.21
44385;BME280;30101;32.778;34.994;2022-12-01T13:56:22;97975.56;;;18.95;63.50
44385;BME280;30101;32.778;34.994;2022-12-01T14:11:57;97984.72;;;18.62;63.92
44385;BME280;30101;32.778;34.994;2022-12-01T14:17:01;97991.63;;;18.52;64.18
44385;BME280;30101;32.778;34.994;2022-12-01T14:27:41;97992.78;;;18.29;64.74
44385;BME280;30101;32.778;34.994;2022-12-01T14:32:44;97986.91;;;18.16;64.96
44385;BME280;30101;32.778;34.994;2022-12-01T14:37:48;97991.34;;;18.00;65.25
44385;BME280;30101;32.778;34.994;2022-12-01T14:42:54;97993.34;;;17.88;65.60
44385;BME280;30101;32.778;34.994;2022-12-01T14:48:02;97998.88;;;17.76;65.82
44385;BME280;30101;32.778;34.994;2022-12-01T14:53:32;98000.84;;;17.64;65.93
44385;BME280;30101;32.778;34.994;2022-12-01T14:58:38;97999.88;;;17.53;65.94
44385;BME280;30101;32.778;34.994;2022-12-01T15:03:56;98007.34;;;17.46;65.83
44385;BME280;30101;32.778;34.994;2022-12-01T15:09:13;97999.16;;;17.41;66.39
44385;BME280;30101;32.778;34.994;2022-12-01T15:14:46;98004.50;;;17.36;66.49
44385;BME280;30101;32.778;34.994;2022-12-01T15:19:50;98007.13;;;17.31;66.54
44385;BME280;30101;32.778;34.994;2022-12-01T15:25:14;98008.66;;;17.26;66.88
44385;BME280;30101;32.778;34.994;2022-12-01T15:30:17;98008.59;;;17.21;66.81
44385;BME280;30101;32.778;34.994;2022-12-01T15:35:21;98009.09;;;17.18;67.04
44385;BME280;30101;32.778;34.994;2022-12-01T15:40:25;98017.66;;;17.15;67.10
44385;BME280;30101;32.778;34.994;2022-12-01T15:45:55;98023.88;;;17.16;67.76
44385;BME280;30101;32.778;34.994;2022-12-01T15:56:10;98031.97;;;17.16;68.16
44385;BME280;30101;32.778;34.994;2022-12-01T16:01:17;98037.63;;;17.14;68.46
44385;BME280;30101;32.778;34.994;2022-12-01T16:06:24;98038.13;;;17.11;68.55
44385;BME280;30101;32.778;34.994;2022-12-01T16:11:29;98046.69;;;17.08;68.75
44385;BME280;30101;32.778;34.994;2022-12-01T16:16:44;98057.72;;;17.07;68.83
44385;BME280;30101;32.778;34.994;2022-12-01T16:26:56;98058.16;;;16.98;69.26
44385;BME280;30101;32.778;34.994;2022-12-01T16:32:36;98061.06;;;16.97;69.12
44385;BME280;30101;32.778;34.994;2022-12-01T16:37:41;98051.59;;;16.94;69.39
44385;BME280;30101;32.778;34.994;2022-12-01T16:42:45;98058.06;;;16.93;69.40
44385;BME280;30101;32.778;34.994;2022-12-01T16:47:48;98056.06;;;16.89;69.57
44385;BME280;30101;32.778;34.994;2022-12-01T16:52:51;98052.25;;;16.85;69.77
44385;BME280;30101;32.778;34.994;2022-12-01T16:57:55;98060.91;;;16.87;69.96
44385;BME280;30101;32.778;34.994;2022-12-01T17:02:59;98056.47;;;16.81;70.22
44385;BME280;30101;32.778;34.994;2022-12-01T17:08:03;98051.56;;;16.78;70.27
44385;BME280;30101;32.778;34.994;2022-12-01T17:13:09;98052.06;;;16.75;70.44
44385;BME280;30101;32.778;34.994;2022-12-01T17:18:13;98050.66;;;16.72;70.81
44385;BME280;30101;32.778;34.994;2022-12-01T17:23:17;98047.59;;;16.68;70.71
44385;BME280;30101;32.778;34.994;2022-12-01T17:28:20;98042.22;;;16.68;70.89
44385;BME280;30101;32.778;34.994;2022-12-01T17:33:24;98038.69;;;16.68;71.01
44385;BME280;30101;32.778;34.994;2022-12-01T17:38:27;98045.16;;;16.67;71.17
44385;BME280;30101;32.778;34.994;2022-12-01T17:43:33;98043.28;;;16.67;70.99
44385;BME280;30101;32.778;34.994;2022-12-01T17:48:44;98041.13;;;16.69;70.95
44385;BME280;30101;32.778;34.994;2022-12-01T17:53:48;98050.28;;;16.68;71.23
44385;BME280;30101;32.778;34.994;2022-12-01T17:58:51;98050.28;;;16.68;71.24
44385;BME280;30101;32.778;34.994;2022-12-01T18:03:56;98052.41;;;16.66;71.45
44385;BME280;30101;32.778;34.994;2022-12-01T18:08:59;98048.66;;;16.67;71.49
44385;BME280;30101;32.778;34.994;2022-12-01T18:14:03;98057.31;;;16.69;71.71
44385;BME280;30101;32.778;34.994;2022-12-01T18:19:08;98055.69;;;16.68;71.82
44385;BME280;30101;32.778;34.994;2022-12-01T18:24:11;98056.50;;;16.69;72.12
44385;BME280;30101;32.778;34.994;2022-12-01T18:29:18;98055.69;;;16.68;72.23
44385;BME280;30101;32.778;34.994;2022-12-01T18:34:22;98058.84;;;16.65;72.23
44385;BME280;30101;32.778;34.994;2022-12-01T18:39:26;98060.16;;;16.63;72.42
44385;BME280;30101;32.778;34.994;2022-12-01T18:44:31;98054.66;;;16.58;72.41
44385;BME280;30101;32.778;34.994;2022-12-01T18:49:35;98057.63;;;16.56;72.29
44385;BME280;30101;32.778;34.994;2022-12-01T18:54:38;98050.03;;;16.53;72.21
44385;BME280;30101;32.778;34.994;2022-12-01T18:59:42;98049.44;;;16.51;71.92
44385;BME280;30101;32.778;34.994;2022-12-01T19:04:45;98044.03;;;16.51;71.81
44385;BME280;30101;32.778;34.994;2022-12-01T19:09:50;98044.94;;;16.57;71.22
44385;BME280;30101;32.778;34.994;2022-12-01T19:14:54;98036.25;;;16.66;70.91
44385;BME280;30101;32.778;34.994;2022-12-01T19:19:58;98044.22;;;16.73;70.25
44385;BME280;30101;32.778;34.994;2022-12-01T19:25:02;98040.44;;;16.74;70.13
44385;BME280;30101;32.778;34.994;2022-12-01T19:30:09;98046.91;;;16.73;70.04
44385;BME280;30101;32.778;34.994;2022-12-01T19:35:12;98043.63;;;16.71;69.96
44385;BME280;30101;32.778;34.994;2022-12-01T19:40:17;98045.84;;;16.74;69.80
44385;BME280;30101;32.778;34.994;2022-12-01T19:45:21;98051.81;;;16.76;69.42
44385;BME280;30101;32.778;34.994;2022-12-01T19:50:25;98054.25;;;16.78;69.38
44385;BME280;30101;32.778;34.994;2022-12-01T19:55:30;98056.47;;;16.81;68.79
44385;BME280;30101;32.778;34.994;2022-12-01T20:00:34;98053.28;;;16.84;68.24
44385;BME280;30101;32.778;34.994;2022-12-01T20:05:37;98056.06;;;16.89;67.72
44385;BME280;30101;32.778;34.994;2022-12-01T20:10:46;98066.13;;;16.93;66.82
44385;BME280;30101;32.778;34.994;2022-12-01T20:15:49;98060.84;;;16.98;66.75
44385;BME280;30101;32.778;34.994;2022-12-01T20:21:09;98069.84;;;17.04;66.51
44385;BME280;30101;32.778;34.994;2022-12-01T20:26:14;98063.94;;;17.07;65.46
44385;BME280;30101;32.778;34.994;2022-12-01T20:31:23;98071.56;;;17.10;65.30
44385;BME280;30101;32.778;34.994;2022-12-01T20:36:27;98077.78;;;17.11;64.82
44385;BME280;30101;32.778;34.994;2022-12-01T20:41:31;98078.00;;;17.09;64.57
44385;BME280;30101;32.778;34.994;2022-12-01T20:46:36;98076.63;;;17.07;64.49
44385;BME280;30101;32.778;34.994;2022-12-01T20:51:40;98072.28;;;17.06;63.95
44385;BME280;30101;32.778;34.994;2022-12-01T20:56:44;98073.34;;;17.05;64.18
44385;BME280;30101;32.778;34.994;2022-12-01T21:01:47;98076.28;;;17.03;63.93
44385;BME280;30101;32.778;34.994;2022-12-01T21:06:56;98072.19;;;17.01;64.04
44385;BME280;30101;32.778;34.994;2022-12-01T21:12:01;98071.03;;;16.96;63.92
44385;BME280;30101;32.778;34.994;2022-12-01T21:17:24;98075.03;;;16.94;64.05
44385;BME280;30101;32.778;34.994;2022-12-01T21:22:30;98074.94;;;16.89;63.98
44385;BME280;30101;32.778;34.994;2022-12-01T21:27:34;98076.03;;;16.88;63.80
44385;BME280;30101;32.778;34.994;2022-12-01T21:32:38;98074.63;;;16.85;63.60
44385;BME280;30101;32.778;34.994;2022-12-01T21:37:47;98071.59;;;16.82;63.42
44385;BME280;30101;32.778;34.994;2022-12-01T21:42:51;98070.78;;;16.81;63.54
44385;BME280;30101;32.778;34.994;2022-12-01T21:48:15;98071.84;;;16.80;63.77
44385;BME280;30101;32.778;34.994;2022-12-01T21:53:20;98066.69;;;16.79;63.42
44385;BME280;30101;32.778;34.994;2022-12-01T21:58:26;98065.03;;;16.78;63.05
44385;BME280;30101;32.778;34.994;2022-12-01T22:03:38;98070.44;;;16.78;62.95
44385;BME280;30101;32.778;34.994;2022-12-01T22:08:48;98070.22;;;16.79;62.75
44385;BME280;30101;32.778;34.994;2022-12-01T22:14:10;98067.25;;;16.81;62.61
44385;BME280;30101;32.778;34.994;2022-12-01T22:29:44;98074.53;;;16.80;61.94
44385;BME280;30101;32.778;34.994;2022-12-01T22:34:51;98065.84;;;16.78;62.05
44385;BME280;30101;32.778;34.994;2022-12-01T22:39:56;98063.09;;;16.73;62.12
44385;BME280;30101;32.778;34.994;2022-12-01T22:45:21;98060.59;;;16.71;62.39
44385;BME280;30101;32.778;34.994;2022-12-01T22:50:29;98065.41;;;16.69;62.01
44385;BME280;30101;32.778;34.994;2022-12-01T22:55:33;98058.84;;;16.65;61.78
44385;BME280;30101;32.778;34.994;2022-12-01T23:00:37;98055.03;;;16.61;61.84
44385;BME280;30101;32.778;34.994;2022-12-01T23:05:41;98069.31;;;16.62;61.95
44385;BME280;30101;32.778;34.994;2022-12-01T23:10:44;98063.56;;;16.58;61.70
44385;BME280;30101;32.778;34.994;2022-12-01T23:15:50;98057.84;;;16.55;61.74
44385;BME280;30101;32.778;34.994;2022-12-01T23:20:57;98054.81;;;16.51;61.72
44385;BME280;30101;32.778;34.994;2022-12-01T23:26:05;98059.06;;;16.47;62.19
44385;BME280;30101;32.778;34.994;2022-12-01T23:31:09;98057.41;;;16.46;62.02
44385;BME280;30101;32.778;34.994;2022-12-01T23:36:17;98054.63;;;16.41;61.91
44385;BME280;30101;32.778;34.994;2022-12-01T23:41:27;98045.63;;;16.35;62.07
44385;BME280;30101;32.778;34.994;2022-12-01T23:46:32;98049.03;;;16.31;62.24
44385;BME280;30101;32.778;34.994;2022-12-01T23:51:38;98047.66;;;16.28;61.89
44385;BME280;30101;32.778;34.994;2022-12-01T23:56:42;98048.13;;;16.25;62.22
